createdAt,value
2019-04-04T00:00:03.455Z,52.00
2019-04-04T00:01:03.448Z,52.00
2019-04-04T00:02:03.432Z,52.00
2019-04-04T00:03:03.418Z,52.00
2019-04-04T00:04:03.406Z,52.00
2019-04-04T00:05:03.402Z,52.00
2019-04-04T00:06:03.384Z,52.00
2019-04-04T00:07:03.415Z,52.00
2019-04-04T00:08:03.362Z,52.00
2019-04-04T00:09:03.349Z,52.00
2019-04-04T00:10:04.068Z,52.00
2019-04-04T00:11:04.079Z,52.00
2019-04-04T00:12:03.316Z,52.00
2019-04-04T00:13:03.315Z,52.00
2019-04-04T00:14:03.288Z,52.00
2019-04-04T00:15:03.282Z,52.00
2019-04-04T00:16:03.266Z,52.00
2019-04-04T00:17:09.417Z,52.00
2019-04-04T00:18:03.257Z,52.00
2019-04-04T00:19:03.271Z,52.00
2019-04-04T00:20:03.224Z,52.00
2019-04-04T00:21:03.278Z,52.00
2019-04-04T00:22:04.907Z,52.00
2019-04-04T00:23:03.193Z,52.00
2019-04-04T00:24:03.177Z,52.00
2019-04-04T00:25:03.170Z,52.00
2019-04-04T00:26:03.158Z,52.00
2019-04-04T00:27:03.140Z,52.00
2019-04-04T00:28:03.127Z,52.00
2019-04-04T00:29:03.122Z,52.00
2019-04-04T00:30:03.110Z,52.00
2019-04-04T00:31:03.133Z,52.00
2019-04-04T00:32:03.090Z,52.00
2019-04-04T00:33:03.075Z,52.00
2019-04-04T00:34:03.061Z,52.00
2019-04-04T00:35:03.052Z,52.00
2019-04-04T00:36:03.354Z,52.00
2019-04-04T00:37:04.723Z,52.00
2019-04-04T00:38:03.021Z,52.00
2019-04-04T00:39:03.003Z,52.00
2019-04-04T00:40:02.995Z,52.00
2019-04-04T00:41:02.989Z,52.00
2019-04-04T00:42:02.983Z,52.00
2019-04-04T00:43:03.058Z,52.00
2019-04-04T00:44:02.949Z,52.00
2019-04-04T00:45:02.935Z,52.00
2019-04-04T00:46:02.933Z,52.00
2019-04-04T00:47:02.913Z,52.00
2019-04-04T00:48:03.582Z,52.00
2019-04-04T00:49:09.296Z,52.00
2019-04-04T00:50:06.085Z,52.00
2019-04-04T00:51:02.863Z,52.00
2019-04-04T00:52:02.857Z,52.00
2019-04-04T00:53:02.850Z,52.00
2019-04-04T00:54:02.832Z,52.00
2019-04-04T00:55:02.826Z,52.00
2019-04-04T00:56:02.806Z,52.00
2019-04-04T00:57:02.827Z,52.00
2019-04-04T00:58:02.793Z,52.00
2019-04-04T00:59:02.814Z,52.00
2019-04-04T01:00:02.767Z,52.00
2019-04-04T01:01:02.754Z,52.00
2019-04-04T01:02:02.737Z,52.00
2019-04-04T01:03:02.729Z,52.00
2019-04-04T01:04:02.715Z,52.00
2019-04-04T01:05:02.717Z,52.00
2019-04-04T01:06:03.585Z,52.00
2019-04-04T01:07:04.694Z,52.00
2019-04-04T01:08:02.670Z,52.00
2019-04-04T01:09:02.696Z,52.00
2019-04-04T01:10:02.647Z,52.00
2019-04-04T01:11:02.642Z,52.00
2019-04-04T01:12:02.638Z,52.00
2019-04-04T01:13:02.614Z,52.00
2019-04-04T01:14:02.606Z,52.00
2019-04-04T01:15:02.607Z,52.00
2019-04-04T01:16:03.322Z,52.00
2019-04-04T01:17:04.120Z,52.00
2019-04-04T01:18:04.073Z,52.00
2019-04-04T01:19:02.550Z,52.00
2019-04-04T01:20:02.534Z,52.00
2019-04-04T01:21:08.940Z,52.00
2019-04-04T01:22:02.516Z,52.00
2019-04-04T01:23:02.499Z,52.00
2019-04-04T01:24:02.491Z,52.00
2019-04-04T01:25:02.490Z,52.00
2019-04-04T01:26:03.515Z,52.00
2019-04-04T01:27:05.919Z,52.00
2019-04-04T01:28:02.446Z,52.00
2019-04-04T01:29:02.436Z,52.00
2019-04-04T01:30:02.420Z,52.00
2019-04-04T01:31:02.405Z,52.00
2019-04-04T01:32:02.441Z,52.00
2019-04-04T01:33:03.822Z,52.00
2019-04-04T01:34:02.371Z,52.00
2019-04-04T01:35:02.363Z,52.00
2019-04-04T01:36:02.355Z,52.00
2019-04-04T01:37:02.346Z,52.00
2019-04-04T01:38:02.343Z,52.00
2019-04-04T01:39:02.318Z,52.00
2019-04-04T01:40:02.871Z,52.00
2019-04-04T01:41:04.327Z,52.00
2019-04-04T01:42:02.289Z,52.00
2019-04-04T01:43:02.275Z,52.00
2019-04-04T01:44:05.260Z,52.00
2019-04-04T01:45:02.246Z,52.00
2019-04-04T01:46:02.235Z,52.00
2019-04-04T01:47:02.230Z,52.00
2019-04-04T01:48:02.222Z,52.00
2019-04-04T01:49:02.243Z,52.00
2019-04-04T01:50:02.215Z,52.00
2019-04-04T01:51:02.181Z,52.00
2019-04-04T01:52:02.165Z,52.00
2019-04-04T01:53:08.541Z,52.00
2019-04-04T01:54:02.141Z,52.00
2019-04-04T01:55:03.415Z,52.00
2019-04-04T01:56:02.123Z,52.00
2019-04-04T01:57:02.108Z,52.00
2019-04-04T01:58:02.100Z,52.00
2019-04-04T01:59:02.091Z,52.00
2019-04-04T02:00:02.088Z,52.00
2019-04-04T02:01:02.065Z,52.00
2019-04-04T02:02:02.048Z,52.00
2019-04-04T02:03:02.037Z,52.00
2019-04-04T02:04:02.028Z,52.00
2019-04-04T02:05:02.056Z,52.00
2019-04-04T02:06:02.005Z,52.00
2019-04-04T02:07:02.008Z,52.00
2019-04-04T02:08:01.979Z,52.00
2019-04-04T02:09:02.847Z,52.00
2019-04-04T02:10:03.241Z,52.00
2019-04-04T02:11:01.959Z,52.00
2019-04-04T02:12:01.938Z,52.00
2019-04-04T02:13:01.966Z,52.00
2019-04-04T02:14:01.913Z,52.00
2019-04-04T02:15:01.909Z,52.00
2019-04-04T02:16:01.895Z,52.00
2019-04-04T02:17:01.881Z,52.00
2019-04-04T02:18:01.865Z,52.00
2019-04-04T02:19:01.867Z,52.00
2019-04-04T02:20:01.850Z,52.00
2019-04-04T02:21:01.833Z,52.00
2019-04-04T02:22:01.822Z,52.00
2019-04-04T02:23:01.959Z,52.00
2019-04-04T02:24:02.084Z,52.00
2019-04-04T02:25:08.261Z,52.00
2019-04-04T02:26:04.898Z,52.00
2019-04-04T02:27:01.765Z,52.00
2019-04-04T02:28:01.754Z,52.00
2019-04-04T02:29:01.743Z,52.00
2019-04-04T02:30:01.773Z,52.00
2019-04-04T02:31:01.731Z,56.00
2019-04-04T02:32:01.708Z,56.00
2019-04-04T02:33:01.698Z,56.00
2019-04-04T02:34:05.368Z,56.00
2019-04-04T02:35:01.767Z,56.00
2019-04-04T02:36:01.712Z,56.00
2019-04-04T02:37:01.650Z,56.00
2019-04-04T02:38:01.647Z,56.00
2019-04-04T02:39:01.631Z,56.00
2019-04-04T02:40:01.614Z,56.00
2019-04-04T02:41:01.611Z,56.00
2019-04-04T02:42:01.604Z,56.00
2019-04-04T02:43:01.581Z,56.00
2019-04-04T02:44:01.571Z,56.00
2019-04-04T02:45:05.088Z,56.00
2019-04-04T02:46:01.544Z,56.00
2019-04-04T02:47:01.539Z,56.00
2019-04-04T02:48:01.537Z,56.00
2019-04-04T02:49:01.555Z,56.00
2019-04-04T02:50:02.283Z,52.00
2019-04-04T02:51:01.493Z,52.00
2019-04-04T02:52:01.491Z,52.00
2019-04-04T02:53:01.519Z,52.00
2019-04-04T02:54:01.458Z,56.00
2019-04-04T02:55:01.447Z,56.00
2019-04-04T02:56:03.323Z,56.00
2019-04-04T02:57:09.213Z,56.00
2019-04-04T02:58:01.406Z,56.00
2019-04-04T02:59:01.418Z,56.00
2019-04-04T03:00:01.419Z,56.00
2019-04-04T03:01:01.379Z,56.00
2019-04-04T03:02:04.881Z,56.00
2019-04-04T03:03:01.357Z,56.00
2019-04-04T03:04:01.343Z,56.00
2019-04-04T03:05:01.375Z,60.00
2019-04-04T03:06:01.321Z,56.00
2019-04-04T03:07:01.302Z,56.00
2019-04-04T03:08:04.170Z,56.00
2019-04-04T03:09:01.304Z,56.00
2019-04-04T03:10:01.285Z,60.00
2019-04-04T03:11:01.306Z,60.00
2019-04-04T03:12:01.298Z,56.00
2019-04-04T03:13:01.243Z,60.00
2019-04-04T03:14:03.684Z,60.00
2019-04-04T03:15:01.219Z,60.00
2019-04-04T03:16:01.203Z,60.00
2019-04-04T03:17:01.236Z,60.00
2019-04-04T03:18:03.915Z,64.00
2019-04-04T03:19:01.171Z,64.00
2019-04-04T03:20:01.165Z,64.00
2019-04-04T03:21:01.142Z,64.00
2019-04-04T03:22:01.144Z,68.00
2019-04-04T03:23:01.498Z,64.00
2019-04-04T03:24:01.115Z,68.00
2019-04-04T03:25:01.107Z,64.00
2019-04-04T03:26:01.093Z,68.00
2019-04-04T03:27:01.125Z,72.00
2019-04-04T03:28:01.074Z,72.00
2019-04-04T03:29:10.439Z,72.00
2019-04-04T03:30:01.067Z,72.00
2019-04-04T03:31:03.106Z,76.00
2019-04-04T03:32:01.031Z,76.00
2019-04-04T03:33:01.029Z,76.00
2019-04-04T03:34:08.697Z,80.00
2019-04-04T03:35:02.118Z,80.00
2019-04-04T03:36:01.363Z,80.00
2019-04-04T03:37:00.968Z,84.00
2019-04-04T03:38:00.953Z,88.00
2019-04-04T03:39:00.946Z,88.00
2019-04-04T03:40:00.944Z,92.00
2019-04-04T03:41:00.917Z,92.00
2019-04-04T03:42:00.919Z,92.00
2019-04-04T03:43:00.904Z,100.00
2019-04-04T03:44:00.898Z,100.00
2019-04-04T03:45:00.879Z,100.00
2019-04-04T03:46:01.648Z,104.00
2019-04-04T03:47:00.857Z,104.00
2019-04-04T03:48:00.845Z,108.00
2019-04-04T03:49:00.868Z,112.00
2019-04-04T03:50:00.813Z,112.00
2019-04-04T03:51:04.040Z,116.00
2019-04-04T03:52:00.795Z,120.00
2019-04-04T03:53:00.791Z,120.00
2019-04-04T03:54:00.779Z,124.00
2019-04-04T03:55:00.824Z,128.00
2019-04-04T03:56:01.573Z,136.00
2019-04-04T03:57:00.735Z,140.00
2019-04-04T03:58:00.726Z,156.00
2019-04-04T03:59:00.820Z,168.00
2019-04-04T04:00:05.597Z,180.00
2019-04-04T04:02:09.870Z,212.00
2019-04-04T04:03:09.851Z,228.00
2019-04-04T04:04:09.842Z,244.00
2019-04-04T04:05:09.831Z,260.00
2019-04-04T04:06:10.094Z,276.00
2019-04-04T04:07:13.814Z,292.00
2019-04-04T04:08:10.792Z,308.00
2019-04-04T04:09:09.792Z,324.00
2019-04-04T04:10:09.783Z,340.00
2019-04-04T04:11:09.763Z,356.00
2019-04-04T04:12:11.130Z,368.00
2019-04-04T04:13:09.738Z,380.00
2019-04-04T04:14:09.729Z,396.00
2019-04-04T04:15:09.721Z,412.00
2019-04-04T04:16:09.719Z,424.00
2019-04-04T04:17:11.590Z,436.00
2019-04-04T04:18:09.704Z,452.00
2019-04-04T04:19:09.676Z,468.00
2019-04-04T04:20:09.663Z,484.00
2019-04-04T04:21:10.928Z,496.00
2019-04-04T04:22:12.707Z,512.00
2019-04-04T04:23:09.629Z,528.00
2019-04-04T04:24:09.625Z,548.00
2019-04-04T04:25:09.600Z,560.00
2019-04-04T04:26:09.955Z,576.00
2019-04-04T04:27:14.436Z,584.00
2019-04-04T04:28:10.567Z,600.00
2019-04-04T04:29:09.590Z,608.00
2019-04-04T04:30:09.549Z,628.00
2019-04-04T04:31:14.177Z,644.00
2019-04-04T04:32:10.514Z,664.00
2019-04-04T04:33:09.502Z,688.00
2019-04-04T04:34:16.151Z,712.00
2019-04-04T04:35:09.490Z,728.00
2019-04-04T04:36:10.237Z,748.00
2019-04-04T04:37:09.456Z,772.00
2019-04-04T04:38:09.453Z,780.00
2019-04-04T04:39:09.433Z,824.00
2019-04-04T04:40:13.625Z,856.00
2019-04-04T04:41:10.415Z,904.00
2019-04-04T04:42:09.402Z,948.00
2019-04-04T04:43:09.391Z,968.00
2019-04-04T04:44:09.378Z,992.00
2019-04-04T04:45:12.156Z,1012.00
2019-04-04T04:46:09.391Z,1040.00
2019-04-04T04:47:09.343Z,1064.00
2019-04-04T04:48:09.328Z,1084.00
2019-04-04T04:49:09.325Z,1104.00
2019-04-04T04:50:10.010Z,1120.00
2019-04-04T04:51:11.513Z,1124.00
2019-04-04T04:52:09.293Z,1128.00
2019-04-04T04:53:09.281Z,1140.00
2019-04-04T04:54:09.256Z,1152.00
2019-04-04T04:55:11.873Z,1192.00
2019-04-04T04:56:09.237Z,1240.00
2019-04-04T04:57:09.225Z,1284.00
2019-04-04T04:58:10.273Z,1308.00
2019-04-04T04:59:09.204Z,1304.00
2019-04-04T05:00:09.189Z,1304.00
2019-04-04T05:01:09.183Z,1280.00
2019-04-04T05:02:09.180Z,1272.00
2019-04-04T05:03:09.158Z,1336.00
2019-04-04T05:04:09.157Z,1364.00
2019-04-04T05:05:09.129Z,1372.00
2019-04-04T05:06:15.219Z,1460.00
2019-04-04T05:07:09.114Z,1444.00
2019-04-04T05:08:10.213Z,1432.00
2019-04-04T05:09:09.091Z,1568.00
2019-04-04T05:10:09.112Z,1596.00
2019-04-04T05:11:09.062Z,1660.00
2019-04-04T05:12:09.047Z,1680.00
2019-04-04T05:13:09.040Z,1772.00
2019-04-04T05:14:09.034Z,1752.00
2019-04-04T05:15:09.019Z,1816.00
2019-04-04T05:16:09.067Z,1816.00
2019-04-04T05:17:10.215Z,1808.00
2019-04-04T05:18:11.788Z,1836.00
2019-04-04T05:19:08.975Z,1876.00
2019-04-04T05:20:08.994Z,1948.00
2019-04-04T05:21:08.946Z,2020.00
2019-04-04T05:22:09.247Z,2172.00
2019-04-04T05:23:11.095Z,2312.00
2019-04-04T05:24:08.914Z,2452.00
2019-04-04T05:25:09.149Z,2628.00
2019-04-04T05:26:09.736Z,2768.00
2019-04-04T05:27:08.884Z,2940.00
2019-04-04T05:28:10.888Z,3084.00
2019-04-04T05:29:08.866Z,3188.00
2019-04-04T05:30:08.843Z,3244.00
2019-04-04T05:31:08.856Z,3348.00
2019-04-04T05:32:08.822Z,3416.00
2019-04-04T05:33:08.810Z,3464.00
2019-04-04T05:34:08.797Z,3428.00
2019-04-04T05:35:08.788Z,3260.00
2019-04-04T05:36:08.778Z,3084.00
2019-04-04T05:37:08.811Z,2952.00
2019-04-04T05:38:14.839Z,3080.00
2019-04-04T05:39:08.756Z,3272.00
2019-04-04T05:40:08.731Z,3424.00
2019-04-04T05:41:08.735Z,3628.00
2019-04-04T05:42:08.720Z,3676.00
2019-04-04T05:43:08.734Z,3740.00
2019-04-04T05:44:09.958Z,3776.00
2019-04-04T05:45:08.676Z,3808.00
2019-04-04T05:46:08.656Z,3780.00
2019-04-04T05:47:08.653Z,3768.00
2019-04-04T05:48:08.662Z,3768.00
2019-04-04T05:49:08.674Z,3700.00
2019-04-04T05:50:10.919Z,3612.00
2019-04-04T05:51:08.598Z,3524.00
2019-04-04T05:52:09.174Z,3408.00
2019-04-04T05:53:08.591Z,3300.00
2019-04-04T05:54:08.618Z,3160.00
2019-04-04T05:55:10.833Z,3036.00
2019-04-04T05:56:08.549Z,2876.00
2019-04-04T05:57:08.537Z,2712.00
2019-04-04T05:58:08.522Z,2508.00
2019-04-04T05:59:08.521Z,2312.00
2019-04-04T06:00:08.530Z,2188.00
2019-04-04T06:01:08.485Z,2128.00
2019-04-04T06:02:11.024Z,2056.00
2019-04-04T06:03:08.484Z,1976.00
2019-04-04T06:04:08.458Z,1956.00
2019-04-04T06:05:08.475Z,1936.00
2019-04-04T06:06:10.503Z,1916.00
2019-04-04T06:07:08.429Z,1916.00
2019-04-04T06:08:08.804Z,1932.00
2019-04-04T06:09:08.405Z,1964.00
2019-04-04T06:10:18.128Z,2012.00
2019-04-04T06:11:08.369Z,2076.00
2019-04-04T06:12:08.379Z,2172.00
2019-04-04T06:13:08.351Z,2280.00
2019-04-04T06:14:08.333Z,2412.00
2019-04-04T06:15:08.324Z,2560.00
2019-04-04T06:16:08.315Z,2712.00
2019-04-04T06:17:08.300Z,2904.00
2019-04-04T06:18:10.963Z,3092.00
2019-04-04T06:19:08.282Z,3272.00
2019-04-04T06:20:08.267Z,3416.00
2019-04-04T06:21:08.251Z,3548.00
2019-04-04T06:22:08.242Z,3652.00
2019-04-04T06:23:08.232Z,3716.00
2019-04-04T06:24:08.238Z,3748.00
2019-04-04T06:25:08.252Z,3804.00
2019-04-04T06:26:08.206Z,3840.00
2019-04-04T06:27:09.102Z,3900.00
2019-04-04T06:28:09.909Z,3972.00
2019-04-04T06:29:08.165Z,3920.00
2019-04-04T06:30:08.215Z,3888.00
2019-04-04T06:31:08.139Z,3828.00
2019-04-04T06:32:08.131Z,3760.00
2019-04-04T06:33:08.114Z,3676.00
2019-04-04T06:34:10.118Z,3572.00
2019-04-04T06:35:08.096Z,3504.00
2019-04-04T06:36:08.080Z,3416.00
2019-04-04T06:37:08.069Z,3328.00
2019-04-04T06:38:08.064Z,3284.00
2019-04-04T06:39:08.058Z,3228.00
2019-04-04T06:40:08.079Z,3180.00
2019-04-04T06:41:08.023Z,3128.00
2019-04-04T06:42:14.101Z,3080.00
2019-04-04T06:43:11.502Z,3012.00
2019-04-04T06:44:07.992Z,2960.00
2019-04-04T06:45:07.976Z,2916.00
2019-04-04T06:46:08.026Z,2856.00
2019-04-04T06:47:07.973Z,2788.00
2019-04-04T06:48:07.940Z,2732.00
2019-04-04T06:49:07.930Z,2692.00
2019-04-04T06:50:08.548Z,2644.00
2019-04-04T06:51:07.909Z,2596.00
2019-04-04T06:52:09.371Z,2536.00
2019-04-04T06:53:07.887Z,2468.00
2019-04-04T06:54:07.871Z,2400.00
2019-04-04T06:55:07.865Z,2328.00
2019-04-04T06:56:07.850Z,2240.00
2019-04-04T06:57:07.874Z,2156.00
2019-04-04T06:58:09.427Z,2076.00
2019-04-04T06:59:11.335Z,1992.00
2019-04-04T07:00:07.808Z,1920.00
2019-04-04T07:01:07.805Z,1860.00
2019-04-04T07:02:07.785Z,1796.00
2019-04-04T07:03:07.808Z,1752.00
2019-04-04T07:04:07.754Z,1712.00
2019-04-04T07:05:10.386Z,1676.00
2019-04-04T07:06:08.083Z,1660.00
2019-04-04T07:07:07.718Z,1648.00
2019-04-04T07:08:07.712Z,1644.00
2019-04-04T07:09:07.708Z,1644.00
2019-04-04T07:10:07.684Z,1652.00
2019-04-04T07:11:20.597Z,1660.00
2019-04-04T07:12:20.312Z,1676.00
2019-04-04T07:13:21.164Z,1716.00
2019-04-04T07:14:13.725Z,1764.00
2019-04-04T07:15:11.004Z,1828.00
2019-04-04T07:16:08.233Z,1864.00
2019-04-04T07:17:08.685Z,1944.00
2019-04-04T07:18:07.596Z,1772.00
2019-04-04T07:19:08.210Z,1708.00
2019-04-04T07:20:07.577Z,1212.00
2019-04-04T07:21:07.566Z,1308.00
2019-04-04T07:22:07.547Z,1332.00
2019-04-04T07:23:07.570Z,1240.00
2019-04-04T07:24:07.525Z,1172.00
2019-04-04T07:25:07.516Z,1160.00
2019-04-04T07:26:09.638Z,1188.00
2019-04-04T07:27:08.488Z,1144.00
2019-04-04T07:28:07.487Z,1152.00
2019-04-04T07:29:07.494Z,1080.00
2019-04-04T07:30:07.452Z,1064.00
2019-04-04T07:31:07.440Z,1072.00
2019-04-04T07:32:09.544Z,1064.00
2019-04-04T07:33:07.422Z,1040.00
2019-04-04T07:34:07.408Z,1024.00
2019-04-04T07:35:07.436Z,996.00
2019-04-04T07:36:07.385Z,984.00
2019-04-04T07:37:07.369Z,968.00
2019-04-04T07:38:07.359Z,1000.00
2019-04-04T07:39:07.349Z,980.00
2019-04-04T07:40:07.338Z,1004.00
2019-04-04T07:41:08.416Z,976.00
2019-04-04T07:42:07.319Z,988.00
2019-04-04T07:43:08.758Z,984.00
2019-04-04T07:44:07.287Z,1080.00
2019-04-04T07:45:07.285Z,1080.00
2019-04-04T07:46:16.664Z,1056.00
2019-04-04T07:47:07.255Z,1080.00
2019-04-04T07:48:07.243Z,1032.00
2019-04-04T07:49:07.244Z,1036.00
2019-04-04T07:50:07.219Z,1016.00
2019-04-04T07:51:07.211Z,1008.00
2019-04-04T07:52:07.204Z,988.00
2019-04-04T07:53:07.183Z,1000.00
2019-04-04T07:54:07.925Z,944.00
2019-04-04T07:55:09.879Z,928.00
2019-04-04T07:56:07.155Z,936.00
2019-04-04T07:57:07.137Z,940.00
2019-04-04T07:58:07.151Z,940.00
2019-04-04T07:59:07.121Z,948.00
2019-04-04T08:00:07.106Z,972.00
2019-04-04T08:01:07.114Z,988.00
2019-04-04T08:02:07.077Z,956.00
2019-04-04T08:03:07.071Z,964.00
2019-04-04T08:04:07.061Z,916.00
2019-04-04T08:05:07.048Z,916.00
2019-04-04T08:06:07.033Z,920.00
2019-04-04T08:07:07.041Z,912.00
2019-04-04T08:08:07.014Z,900.00
2019-04-04T08:09:06.997Z,904.00
2019-04-04T08:10:19.543Z,888.00
2019-04-04T08:11:08.021Z,880.00
2019-04-04T08:12:06.963Z,880.00
2019-04-04T08:13:06.955Z,828.00
2019-04-04T08:14:06.943Z,816.00
2019-04-04T08:15:06.928Z,888.00
2019-04-04T08:16:06.917Z,904.00
2019-04-04T08:17:06.913Z,900.00
2019-04-04T08:18:12.980Z,892.00
2019-04-04T08:19:06.884Z,876.00
2019-04-04T08:20:06.876Z,876.00
2019-04-04T08:21:06.865Z,880.00
2019-04-04T08:22:06.960Z,864.00
2019-04-04T08:23:06.838Z,900.00
2019-04-04T08:24:06.834Z,884.00
2019-04-04T08:25:06.813Z,876.00
2019-04-04T08:26:09.876Z,872.00
2019-04-04T08:27:06.792Z,888.00
2019-04-04T08:28:06.826Z,908.00
2019-04-04T08:29:06.772Z,872.00
2019-04-04T08:30:06.758Z,868.00
2019-04-04T08:31:09.636Z,868.00
2019-04-04T08:32:06.740Z,856.00
2019-04-04T08:33:06.726Z,836.00
2019-04-04T08:34:06.748Z,840.00
2019-04-04T08:35:06.699Z,828.00
2019-04-04T08:36:06.839Z,828.00
2019-04-04T08:37:06.677Z,824.00
2019-04-04T08:38:06.660Z,824.00
2019-04-04T08:39:06.661Z,816.00
2019-04-04T08:40:06.649Z,808.00
2019-04-04T08:41:06.633Z,808.00
2019-04-04T08:42:06.616Z,804.00
2019-04-04T08:43:06.607Z,808.00
2019-04-04T08:44:06.596Z,804.00
2019-04-04T08:45:06.589Z,808.00
2019-04-04T08:46:06.577Z,824.00
2019-04-04T08:47:06.561Z,812.00
2019-04-04T08:48:06.550Z,820.00
2019-04-04T08:49:06.540Z,824.00
2019-04-04T08:50:19.620Z,836.00
2019-04-04T08:52:17.290Z,848.00
2019-04-04T08:53:14.690Z,868.00
2019-04-04T08:54:14.684Z,872.00
2019-04-04T08:55:14.671Z,868.00
2019-04-04T08:56:14.701Z,868.00
2019-04-04T08:57:14.642Z,876.00
2019-04-04T08:58:14.648Z,860.00
2019-04-04T08:59:14.625Z,864.00
2019-04-04T09:00:14.608Z,868.00
2019-04-04T09:01:14.605Z,872.00
2019-04-04T09:02:14.595Z,880.00
2019-04-04T09:03:14.579Z,884.00
2019-04-04T09:04:14.562Z,884.00
2019-04-04T09:05:14.555Z,880.00
2019-04-04T09:06:14.544Z,868.00
2019-04-04T09:07:14.569Z,868.00
2019-04-04T09:08:14.517Z,876.00
2019-04-04T09:09:14.514Z,876.00
2019-04-04T09:10:14.497Z,860.00
2019-04-04T09:11:14.485Z,868.00
2019-04-04T09:12:14.481Z,872.00
2019-04-04T09:13:14.493Z,864.00
2019-04-04T09:14:14.451Z,864.00
2019-04-04T09:15:14.443Z,856.00
2019-04-04T09:16:14.428Z,852.00
2019-04-04T09:17:14.420Z,848.00
2019-04-04T09:18:14.404Z,844.00
2019-04-04T09:19:14.430Z,848.00
2019-04-04T09:20:14.378Z,848.00
2019-04-04T09:21:14.368Z,844.00
2019-04-04T09:22:14.377Z,844.00
2019-04-04T09:23:20.436Z,844.00
2019-04-04T09:24:14.335Z,840.00
2019-04-04T09:25:14.340Z,836.00
2019-04-04T09:26:14.315Z,832.00
2019-04-04T09:27:14.299Z,828.00
2019-04-04T09:28:14.293Z,828.00
2019-04-04T09:29:14.280Z,820.00
2019-04-04T09:30:14.303Z,824.00
2019-04-04T09:31:14.257Z,812.00
2019-04-04T09:32:14.247Z,816.00
2019-04-04T09:33:14.236Z,808.00
2019-04-04T09:34:14.219Z,812.00
2019-04-04T09:35:14.213Z,812.00
2019-04-04T09:36:14.211Z,812.00
2019-04-04T09:37:14.192Z,808.00
2019-04-04T09:38:14.178Z,804.00
2019-04-04T09:39:14.166Z,800.00
2019-04-04T09:40:14.151Z,800.00
2019-04-04T09:41:14.152Z,800.00
2019-04-04T09:42:14.128Z,792.00
2019-04-04T09:43:14.124Z,784.00
2019-04-04T09:44:14.103Z,788.00
2019-04-04T09:45:14.098Z,788.00
2019-04-04T09:46:14.091Z,792.00
2019-04-04T09:47:14.088Z,788.00
2019-04-04T09:48:14.056Z,784.00
2019-04-04T09:49:14.053Z,788.00
2019-04-04T09:50:14.038Z,784.00
2019-04-04T09:51:14.023Z,780.00
2019-04-04T09:52:14.014Z,772.00
2019-04-04T09:53:14.039Z,772.00
2019-04-04T09:54:13.988Z,760.00
2019-04-04T09:55:20.069Z,756.00
2019-04-04T09:56:13.977Z,748.00
2019-04-04T09:57:13.956Z,752.00
2019-04-04T09:58:13.949Z,748.00
2019-04-04T09:59:13.947Z,752.00
2019-04-04T10:00:13.924Z,736.00
2019-04-04T10:01:13.910Z,724.00
2019-04-04T10:02:13.901Z,704.00
2019-04-04T10:03:13.887Z,704.00
2019-04-04T10:04:13.910Z,696.00
2019-04-04T10:05:13.864Z,684.00
2019-04-04T10:06:13.856Z,688.00
2019-04-04T10:07:13.843Z,684.00
2019-04-04T10:08:13.835Z,680.00
2019-04-04T10:09:16.074Z,664.00
2019-04-04T10:10:13.826Z,684.00
2019-04-04T10:11:13.793Z,684.00
2019-04-04T10:12:13.784Z,680.00
2019-04-04T10:13:13.772Z,688.00
2019-04-04T10:14:13.759Z,696.00
2019-04-04T10:15:13.751Z,720.00
2019-04-04T10:16:13.750Z,716.00
2019-04-04T10:17:13.729Z,724.00
2019-04-04T10:18:13.717Z,720.00
2019-04-04T10:19:13.706Z,724.00
2019-04-04T10:20:13.732Z,720.00
2019-04-04T10:21:13.690Z,712.00
2019-04-04T10:22:13.667Z,700.00
2019-04-04T10:23:13.658Z,700.00
2019-04-04T10:24:13.648Z,700.00
2019-04-04T10:25:13.638Z,692.00
2019-04-04T10:26:13.664Z,696.00
2019-04-04T10:27:19.768Z,692.00
2019-04-04T10:28:13.600Z,688.00
2019-04-04T10:29:13.590Z,688.00
2019-04-04T10:30:13.587Z,676.00
2019-04-04T10:31:13.575Z,672.00
2019-04-04T10:32:13.591Z,688.00
2019-04-04T10:33:13.543Z,684.00
2019-04-04T10:34:13.535Z,688.00
2019-04-04T10:35:13.524Z,684.00
2019-04-04T10:36:13.508Z,684.00
2019-04-04T10:37:13.495Z,680.00
2019-04-04T10:38:13.524Z,680.00
2019-04-04T10:39:13.478Z,672.00
2019-04-04T10:40:13.469Z,672.00
2019-04-04T10:41:13.451Z,656.00
2019-04-04T10:42:13.446Z,648.00
2019-04-04T10:43:13.430Z,684.00
2019-04-04T10:44:13.428Z,684.00
2019-04-04T10:45:13.402Z,684.00
2019-04-04T10:46:13.398Z,680.00
2019-04-04T10:47:13.405Z,680.00
2019-04-04T10:48:13.376Z,680.00
2019-04-04T10:49:13.400Z,676.00
2019-04-04T10:50:13.351Z,672.00
2019-04-04T10:51:13.340Z,664.00
2019-04-04T10:52:13.331Z,668.00
2019-04-04T10:53:13.311Z,664.00
2019-04-04T10:54:13.309Z,664.00
2019-04-04T10:55:13.309Z,664.00
2019-04-04T10:56:13.284Z,656.00
2019-04-04T10:57:13.271Z,640.00
2019-04-04T10:58:13.255Z,652.00
2019-04-04T10:59:19.628Z,652.00
2019-04-04T11:00:13.255Z,648.00
2019-04-04T11:01:13.233Z,644.00
2019-04-04T11:02:13.210Z,636.00
2019-04-04T11:03:13.199Z,632.00
2019-04-04T11:04:13.187Z,624.00
2019-04-04T11:05:13.216Z,628.00
2019-04-04T11:06:13.166Z,624.00
2019-04-04T11:07:13.150Z,620.00
2019-04-04T11:08:13.144Z,608.00
2019-04-04T11:09:13.135Z,620.00
2019-04-04T11:10:13.120Z,600.00
2019-04-04T11:11:13.122Z,596.00
2019-04-04T11:12:13.120Z,596.00
2019-04-04T11:13:13.088Z,584.00
2019-04-04T11:14:13.075Z,596.00
2019-04-04T11:15:13.061Z,588.00
2019-04-04T11:16:13.063Z,612.00
2019-04-04T11:17:13.035Z,612.00
2019-04-04T11:18:13.028Z,604.00
2019-04-04T11:19:13.015Z,596.00
2019-04-04T11:20:13.006Z,604.00
2019-04-04T11:21:13.033Z,600.00
2019-04-04T11:22:12.996Z,592.00
2019-04-04T11:23:12.974Z,600.00
2019-04-04T11:24:12.961Z,600.00
2019-04-04T11:25:12.950Z,592.00
2019-04-04T11:26:12.937Z,592.00
2019-04-04T11:27:12.939Z,588.00
2019-04-04T11:28:12.918Z,588.00
2019-04-04T11:29:12.905Z,584.00
2019-04-04T11:30:12.890Z,584.00
2019-04-04T11:31:18.969Z,580.00
2019-04-04T11:32:12.875Z,580.00
2019-04-04T11:33:12.854Z,580.00
2019-04-04T11:34:12.842Z,576.00
2019-04-04T11:35:12.832Z,580.00
2019-04-04T11:36:12.820Z,576.00
2019-04-04T11:37:12.822Z,572.00
2019-04-04T11:38:12.797Z,572.00
2019-04-04T11:39:12.786Z,568.00
2019-04-04T11:40:12.774Z,572.00
2019-04-04T11:41:12.765Z,564.00
2019-04-04T11:42:12.788Z,564.00
2019-04-04T11:43:12.745Z,560.00
2019-04-04T11:44:12.735Z,560.00
2019-04-04T11:45:12.722Z,560.00
2019-04-04T11:46:12.706Z,556.00
2019-04-04T11:47:12.692Z,552.00
2019-04-04T11:48:12.730Z,544.00
2019-04-04T11:49:12.677Z,544.00
2019-04-04T11:50:12.665Z,536.00
2019-04-04T11:51:12.654Z,536.00
2019-04-04T11:52:12.638Z,536.00
2019-04-04T11:53:12.629Z,536.00
2019-04-04T11:54:12.628Z,536.00
2019-04-04T11:55:12.601Z,532.00
2019-04-04T11:56:12.592Z,528.00
2019-04-04T11:57:12.577Z,528.00
2019-04-04T11:58:12.566Z,528.00
2019-04-04T11:59:12.580Z,520.00
2019-04-04T12:00:12.547Z,524.00
2019-04-04T12:01:12.535Z,516.00
2019-04-04T12:02:12.524Z,520.00
2019-04-04T12:03:18.909Z,516.00
2019-04-04T12:04:12.501Z,512.00
2019-04-04T12:05:12.511Z,512.00
2019-04-04T12:06:12.476Z,512.00
2019-04-04T12:07:12.466Z,508.00
2019-04-04T12:08:12.457Z,508.00
2019-04-04T12:09:12.466Z,504.00
2019-04-04T12:10:12.435Z,504.00
2019-04-04T12:11:12.465Z,504.00
2019-04-04T12:12:12.408Z,504.00
2019-04-04T12:13:12.399Z,496.00
2019-04-04T12:14:12.390Z,500.00
2019-04-04T12:15:12.378Z,496.00
2019-04-04T12:16:12.365Z,492.00
2019-04-04T12:17:12.364Z,492.00
2019-04-04T12:18:12.344Z,488.00
2019-04-04T12:19:12.335Z,488.00
2019-04-04T12:20:12.319Z,484.00
2019-04-04T12:21:12.326Z,484.00
2019-04-04T12:22:12.299Z,484.00
2019-04-04T12:23:12.283Z,484.00
2019-04-04T12:24:12.277Z,484.00
2019-04-04T12:25:12.266Z,480.00
2019-04-04T12:26:12.252Z,476.00
2019-04-04T12:27:12.279Z,476.00
2019-04-04T12:28:12.225Z,476.00
2019-04-04T12:29:12.215Z,472.00
2019-04-04T12:30:12.209Z,472.00
2019-04-04T12:31:12.195Z,472.00